createdAt,value
2022-11-14T00:00:59.224Z,2.79
2022-11-14T00:03:25.709Z,2.82
2022-11-14T00:05:52.089Z,2.86
2022-11-14T00:08:25.076Z,2.86
2022-11-14T00:10:52.039Z,2.84
2022-11-14T00:13:19.910Z,2.75
2022-11-14T00:15:50.262Z,2.78
2022-11-14T00:18:17.496Z,2.72
2022-11-14T00:20:43.955Z,2.67
2022-11-14T00:23:10.354Z,2.66
2022-11-14T00:25:36.923Z,2.62
2022-11-14T00:28:03.306Z,2.57
2022-11-14T00:30:29.859Z,2.46
2022-11-14T00:32:56.233Z,2.51
2022-11-14T00:35:23.013Z,2.48
2022-11-14T00:37:50.025Z,2.46
2022-11-14T00:40:16.664Z,2.42
2022-11-14T00:42:43.192Z,2.45
2022-11-14T00:45:10.460Z,2.44
2022-11-14T00:47:37.169Z,2.44
2022-11-14T00:50:04.690Z,2.43
2022-11-14T00:52:31.076Z,2.39
2022-11-14T00:54:57.641Z,2.39
2022-11-14T00:57:24.178Z,2.40
2022-11-14T00:59:50.715Z,2.47
2022-11-14T01:02:17.078Z,2.45
2022-11-14T01:04:43.570Z,2.44
2022-11-14T01:07:09.997Z,2.41
2022-11-14T01:09:36.619Z,2.39
2022-11-14T01:12:03.152Z,2.49
2022-11-14T01:14:29.559Z,2.55
2022-11-14T01:16:56.346Z,2.54
2022-11-14T01:19:22.734Z,2.50
2022-11-14T01:21:49.410Z,2.46
2022-11-14T01:24:15.784Z,2.51
2022-11-14T01:26:42.236Z,2.46
2022-11-14T01:29:08.636Z,2.55
2022-11-14T01:31:35.175Z,2.65
2022-11-14T01:34:01.594Z,2.66
2022-11-14T01:36:28.198Z,2.66
2022-11-14T01:38:55.014Z,2.52
2022-11-14T01:41:22.873Z,2.54
2022-11-14T01:43:49.804Z,2.54
2022-11-14T01:46:19.283Z,2.72
2022-11-14T01:48:51.578Z,2.74
2022-11-14T01:51:27.070Z,2.74
2022-11-14T01:53:56.379Z,2.72
2022-11-14T01:56:32.190Z,2.75
2022-11-14T01:59:04.701Z,2.74
2022-11-14T02:01:34.116Z,2.68
2022-11-14T02:04:05.489Z,2.75
2022-11-14T02:06:33.259Z,2.85
2022-11-14T02:09:05.002Z,2.85
2022-11-14T02:11:35.095Z,2.84
2022-11-14T02:14:01.937Z,2.94
2022-11-14T02:16:28.996Z,2.97
2022-11-14T02:18:55.621Z,3.03
2022-11-14T02:21:21.996Z,3.15
2022-11-14T02:23:48.617Z,3.12
2022-11-14T02:26:19.876Z,3.11
2022-11-14T02:28:47.343Z,3.14
2022-11-14T02:31:14.634Z,3.19
2022-11-14T02:33:42.070Z,3.17
2022-11-14T02:36:09.396Z,3.24
2022-11-14T02:38:36.468Z,3.24
2022-11-14T02:41:03.313Z,3.31
2022-11-14T02:43:29.751Z,3.32
2022-11-14T02:45:57.473Z,3.30
2022-11-14T02:48:25.655Z,3.34
2022-11-14T02:50:52.071Z,3.29
2022-11-14T02:53:18.604Z,3.24
2022-11-14T02:55:44.986Z,3.23
2022-11-14T02:58:11.465Z,3.24
2022-11-14T03:00:53.328Z,3.22
2022-11-14T03:03:24.299Z,3.12
2022-11-14T03:05:53.311Z,3.02
2022-11-14T03:08:19.982Z,2.97
2022-11-14T03:10:46.387Z,2.98
2022-11-14T03:13:12.786Z,3.01
2022-11-14T03:15:39.400Z,3.07
2022-11-14T03:18:05.895Z,3.02
2022-11-14T03:20:32.318Z,2.95
2022-11-14T03:22:58.742Z,2.88
2022-11-14T03:25:25.154Z,2.81
2022-11-14T03:27:51.781Z,2.77
2022-11-14T03:30:18.313Z,2.72
2022-11-14T03:32:44.905Z,2.58
2022-11-14T03:35:11.674Z,2.53
2022-11-14T03:37:38.584Z,2.41
2022-11-14T03:40:05.792Z,2.38
2022-11-14T03:42:36.189Z,2.29
2022-11-14T03:45:02.661Z,2.20
2022-11-14T03:47:29.438Z,2.19
2022-11-14T03:49:55.878Z,2.14
2022-11-14T03:52:22.400Z,2.13
2022-11-14T03:54:48.927Z,2.09
2022-11-14T03:57:15.447Z,2.10
2022-11-14T03:59:41.837Z,2.09
2022-11-14T04:02:08.925Z,2.09
2022-11-14T04:04:35.756Z,2.05
2022-11-14T04:07:02.420Z,1.99
2022-11-14T04:09:29.486Z,2.00
2022-11-14T04:11:56.043Z,1.96
2022-11-14T04:14:22.716Z,1.99
2022-11-14T04:16:49.095Z,2.10
2022-11-14T04:19:15.628Z,2.04
2022-11-14T04:21:41.974Z,2.07
2022-11-14T04:24:11.169Z,2.11
2022-11-14T04:26:37.902Z,2.15
2022-11-14T04:29:06.902Z,2.18
2022-11-14T04:31:33.338Z,2.19
2022-11-14T04:33:59.934Z,2.22
2022-11-14T04:36:26.319Z,2.19
2022-11-14T04:38:52.786Z,2.22
2022-11-14T04:41:19.165Z,2.25
2022-11-14T04:43:50.664Z,2.24
2022-11-14T04:46:17.409Z,2.21
2022-11-14T04:48:45.055Z,2.19
2022-11-14T04:51:11.456Z,2.11
2022-11-14T04:53:38.035Z,2.10
2022-11-14T04:56:04.759Z,2.15
2022-11-14T04:58:31.620Z,2.12
2022-11-14T05:00:58.450Z,2.03
2022-11-14T05:03:25.444Z,1.97
2022-11-14T05:05:51.942Z,1.92
2022-11-14T05:08:18.520Z,1.82
2022-11-14T05:10:46.134Z,1.74
2022-11-14T05:13:12.882Z,1.70
2022-11-14T05:15:39.493Z,1.64
2022-11-14T05:18:05.897Z,1.64
2022-11-14T05:20:32.520Z,1.71
2022-11-14T05:22:59.172Z,1.75
2022-11-14T05:25:25.718Z,1.67
2022-11-14T05:27:52.132Z,1.66
2022-11-14T05:30:18.851Z,1.67
2022-11-14T05:32:45.231Z,1.62
2022-11-14T05:35:11.741Z,1.62
2022-11-14T05:37:38.309Z,1.56
2022-11-14T05:40:06.650Z,1.50
2022-11-14T05:42:33.147Z,1.45
2022-11-14T05:44:59.916Z,1.45
2022-11-14T05:47:26.300Z,1.55
2022-11-14T05:49:52.877Z,1.45
2022-11-14T05:52:19.289Z,1.39
2022-11-14T05:54:45.766Z,1.30
2022-11-14T05:57:12.160Z,1.34
2022-11-14T05:59:38.747Z,1.37
2022-11-14T06:02:05.643Z,1.42
2022-11-14T06:04:32.095Z,1.49
2022-11-14T06:06:58.727Z,1.52
2022-11-14T06:09:25.154Z,1.56
2022-11-14T06:11:51.609Z,1.54
2022-11-14T06:14:18.103Z,1.62
2022-11-14T06:16:44.480Z,1.69
2022-11-14T06:19:10.924Z,1.79
2022-11-14T06:21:37.332Z,1.95
2022-11-14T06:24:04.189Z,2.14
2022-11-14T06:26:31.649Z,2.27
2022-11-14T06:28:59.924Z,2.35
2022-11-14T06:31:26.926Z,2.68
2022-11-14T06:33:53.888Z,2.96
2022-11-14T06:36:20.509Z,2.99
2022-11-14T06:38:47.107Z,3.09
2022-11-14T06:41:13.586Z,3.19
2022-11-14T06:43:45.678Z,3.38
2022-11-14T06:46:14.975Z,3.48
2022-11-14T06:48:43.075Z,3.60
2022-11-14T06:51:11.656Z,3.65
2022-11-14T06:53:38.112Z,3.70
2022-11-14T06:56:08.770Z,3.93
2022-11-14T06:58:38.978Z,3.74
2022-11-14T07:01:08.264Z,3.71
2022-11-14T07:03:34.894Z,3.68
2022-11-14T07:06:02.292Z,3.70
2022-11-14T07:08:29.513Z,3.86
2022-11-14T07:11:11.391Z,3.97
2022-11-14T07:13:38.573Z,4.01
2022-11-14T07:16:05.675Z,3.99
2022-11-14T07:18:33.665Z,4.11
2022-11-14T07:21:02.829Z,4.34
2022-11-14T07:23:32.038Z,4.38
2022-11-14T07:26:09.192Z,4.47
2022-11-14T07:28:37.780Z,4.57
2022-11-14T07:31:07.786Z,4.63
2022-11-14T07:33:34.633Z,4.73
2022-11-14T07:36:01.757Z,4.75
2022-11-14T07:38:28.569Z,4.83
2022-11-14T07:41:03.741Z,4.84
2022-11-14T07:43:30.350Z,4.91
2022-11-14T07:46:00.974Z,5.05
2022-11-14T07:48:29.266Z,5.10
2022-11-14T07:51:03.826Z,5.15
2022-11-14T07:53:31.101Z,5.17
2022-11-14T07:56:03.128Z,5.12
2022-11-14T07:58:30.200Z,5.15
2022-11-14T08:01:01.426Z,5.18
2022-11-14T08:03:28.672Z,5.28
2022-11-14T08:06:06.838Z,5.28
2022-11-14T08:08:33.677Z,5.31
2022-11-14T08:11:00.785Z,5.30
2022-11-14T08:13:33.227Z,5.41
2022-11-14T08:16:09.156Z,5.37
2022-11-14T08:18:38.691Z,5.41
2022-11-14T08:21:05.873Z,5.56
2022-11-14T08:23:32.410Z,5.56
2022-11-14T08:25:59.881Z,5.53
2022-11-14T08:28:26.287Z,5.57
2022-11-14T08:30:52.795Z,5.63
2022-11-14T08:33:19.203Z,5.60
2022-11-14T08:35:45.584Z,5.59
2022-11-14T08:38:12.099Z,5.62
2022-11-14T08:40:39.873Z,5.67
2022-11-14T08:43:06.394Z,5.75
2022-11-14T08:45:32.865Z,5.67
2022-11-14T08:47:59.243Z,5.67
2022-11-14T08:50:25.674Z,5.64
2022-11-14T08:52:52.463Z,5.70
2022-11-14T08:55:19.783Z,5.71
2022-11-14T08:57:49.691Z,5.73
2022-11-14T09:00:17.341Z,5.76
2022-11-14T09:02:43.778Z,5.87
2022-11-14T09:05:11.018Z,5.88
2022-11-14T09:07:37.599Z,5.90
2022-11-14T09:10:05.124Z,5.95
2022-11-14T09:12:31.751Z,5.94
2022-11-14T09:14:58.262Z,6.04
2022-11-14T09:17:24.844Z,6.12
2022-11-14T09:19:51.278Z,6.19
2022-11-14T09:22:17.750Z,6.24
2022-11-14T09:24:47.337Z,6.22
2022-11-14T09:27:14.091Z,6.28
2022-11-14T09:29:40.941Z,6.28
2022-11-14T09:32:07.540Z,6.48
2022-11-14T09:34:33.929Z,6.42
2022-11-14T09:37:00.279Z,6.49
2022-11-14T09:39:26.735Z,6.48
2022-11-14T09:42:15.825Z,6.49
2022-11-14T09:44:49.522Z,6.62
2022-11-14T09:47:21.589Z,6.59
2022-11-14T09:49:50.683Z,6.52
2022-11-14T09:52:39.969Z,6.65
2022-11-14T09:55:36.852Z,6.73
2022-11-14T09:58:04.363Z,6.61
2022-11-14T10:01:20.509Z,6.70
2022-11-14T10:03:59.361Z,6.66
2022-11-14T10:06:58.381Z,6.73
2022-11-14T10:09:46.274Z,6.73
2022-11-14T10:12:43.570Z,6.83
2022-11-14T10:15:39.399Z,6.84
2022-11-14T10:18:36.787Z,6.82
2022-11-14T10:21:26.762Z,6.86
2022-11-14T10:24:09.729Z,6.81
2022-11-14T10:26:55.008Z,6.84
2022-11-14T10:29:24.216Z,6.88
2022-11-14T10:32:09.458Z,6.94
2022-11-14T10:34:47.995Z,6.98
2022-11-14T10:37:23.473Z,6.93
2022-11-14T10:40:08.719Z,7.01
2022-11-14T10:42:38.653Z,6.96
2022-11-14T10:45:28.631Z,6.99
2022-11-14T10:48:00.062Z,7.04
2022-11-14T10:50:56.035Z,6.87
2022-11-14T10:53:27.089Z,6.96
2022-11-14T10:56:04.038Z,7.01
2022-11-14T10:58:42.015Z,6.97
2022-11-14T11:01:32.985Z,7.05
2022-11-14T11:04:12.064Z,7.15
2022-11-14T11:06:38.728Z,7.12
2022-11-14T11:09:31.677Z,7.18
2022-11-14T11:12:01.659Z,7.29
2022-11-14T11:14:29.575Z,7.33
2022-11-14T11:17:11.472Z,7.39
2022-11-14T11:19:39.471Z,7.33
2022-11-14T11:22:23.193Z,7.55
2022-11-14T11:24:49.601Z,7.69
2022-11-14T11:27:19.033Z,7.79
2022-11-14T11:29:46.590Z,7.81
2022-11-14T11:32:26.078Z,7.81
2022-11-14T11:34:52.627Z,7.60
2022-11-14T11:37:24.315Z,7.69
2022-11-14T11:40:01.055Z,7.84
2022-11-14T11:43:31.839Z,7.84
2022-11-14T11:45:33.607Z,8.00
2022-11-14T11:48:14.117Z,8.00
2022-11-14T11:50:41.419Z,7.92
2022-11-14T11:53:31.848Z,8.00
2022-11-14T11:56:10.202Z,7.99
2022-11-14T11:58:52.052Z,8.04
2022-11-14T12:01:19.784Z,7.80
2022-11-14T12:03:55.450Z,7.87
2022-11-14T12:06:27.502Z,7.92
2022-11-14T12:09:03.425Z,7.95
2022-11-14T12:11:34.117Z,7.83
2022-11-14T12:14:06.564Z,7.82
2022-11-14T12:16:51.735Z,7.85
2022-11-14T12:19:24.137Z,7.81
2022-11-14T12:22:05.759Z,7.62
2022-11-14T12:25:00.141Z,7.67
2022-11-14T12:27:49.958Z,7.60
2022-11-14T12:30:21.892Z,7.69
2022-11-14T12:32:54.852Z,7.77
2022-11-14T12:35:29.698Z,7.83
2022-11-14T12:37:58.432Z,7.86
2022-11-14T12:40:37.571Z,7.93
2022-11-14T12:43:24.518Z,7.93
2022-11-14T12:45:50.830Z,7.82
2022-11-14T12:48:31.382Z,7.84
2022-11-14T12:50:59.728Z,7.92
2022-11-14T12:53:37.820Z,7.89
2022-11-14T12:56:30.715Z,7.78
2022-11-14T12:59:12.501Z,7.77
2022-11-14T13:01:42.434Z,7.79
2022-11-14T13:04:42.795Z,7.69
2022-11-14T13:07:32.938Z,7.80
2022-11-14T13:10:03.812Z,7.72
2022-11-14T13:12:51.694Z,7.77
2022-11-14T13:15:54.619Z,7.87
2022-11-14T13:18:45.529Z,7.90
2022-11-14T13:21:45.392Z,8.02
2022-11-14T13:24:17.777Z,7.96
2022-11-14T13:26:48.656Z,7.95
2022-11-14T13:29:40.045Z,7.94
2022-11-14T13:32:11.733Z,7.75
2022-11-14T13:34:51.951Z,7.79
2022-11-14T13:37:56.980Z,7.86
2022-11-14T13:40:51.554Z,7.77
2022-11-14T13:43:30.226Z,7.71
2022-11-14T13:46:13.577Z,7.77
2022-11-14T13:49:01.687Z,7.70
2022-11-14T13:51:43.017Z,7.67
2022-11-14T13:54:17.568Z,7.70
2022-11-14T13:57:03.035Z,7.64
2022-11-14T13:59:48.004Z,7.49
2022-11-14T14:02:40.295Z,7.60
2022-11-14T14:05:31.188Z,7.60
2022-11-14T14:10:56.853Z,7.59
2022-11-14T14:13:51.112Z,7.57
2022-11-14T14:16:39.299Z,7.56
2022-11-14T14:19:25.530Z,7.55
2022-11-14T14:22:10.025Z,7.65
2022-11-14T14:24:48.426Z,7.63
2022-11-14T14:27:28.062Z,7.71
2022-11-14T14:30:12.813Z,7.64
2022-11-14T14:32:39.326Z,7.61
2022-11-14T14:35:27.236Z,7.79
2022-11-14T14:37:55.656Z,7.70
2022-11-14T14:40:26.250Z,7.69
2022-11-14T14:42:53.674Z,7.71
2022-11-14T14:45:22.540Z,7.66
2022-11-14T14:47:51.651Z,7.73
2022-11-14T14:50:24.105Z,7.73
2022-11-14T14:52:58.809Z,7.66
2022-11-14T14:55:32.507Z,7.63
2022-11-14T14:58:27.596Z,7.67
2022-11-14T15:01:07.159Z,7.61
2022-11-14T15:03:38.169Z,7.64
2022-11-14T15:06:29.668Z,7.62
2022-11-14T15:08:59.615Z,7.57
2022-11-14T15:11:31.389Z,7.61
2022-11-14T15:14:00.442Z,7.53
2022-11-14T15:16:29.153Z,7.51
2022-11-14T15:18:57.209Z,7.54
2022-11-14T15:21:29.412Z,7.50
2022-11-14T15:24:23.460Z,7.51
2022-11-14T15:26:51.187Z,7.46
2022-11-14T15:29:21.080Z,7.45
2022-11-14T15:31:57.662Z,7.53
2022-11-14T15:34:30.023Z,7.47
2022-11-14T15:37:16.090Z,7.41
2022-11-14T15:39:43.611Z,7.55
2022-11-14T15:42:26.337Z,7.45
2022-11-14T15:44:52.697Z,7.41
2022-11-14T15:47:20.979Z,7.40
2022-11-14T15:50:06.645Z,7.43
2022-11-14T15:53:01.185Z,7.45
2022-11-14T15:55:28.181Z,7.40
2022-11-14T15:58:20.995Z,7.37
2022-11-14T16:00:50.165Z,7.38
2022-11-14T16:03:19.452Z,7.35
2022-11-14T16:05:48.559Z,7.39
2022-11-14T16:08:14.913Z,7.42
2022-11-14T16:10:41.246Z,7.39
2022-11-14T16:13:07.643Z,7.48
2022-11-14T16:15:34.046Z,7.45
2022-11-14T16:18:00.377Z,7.49
2022-11-14T16:20:29.602Z,7.50
2022-11-14T16:22:56.624Z,7.49
2022-11-14T16:25:28.620Z,7.56
2022-11-14T16:27:55.314Z,7.53
2022-11-14T16:30:23.836Z,7.61
2022-11-14T16:32:51.762Z,7.57
2022-11-14T16:35:23.657Z,7.54
2022-11-14T16:37:50.934Z,7.52
2022-11-14T16:40:27.691Z,7.57
2022-11-14T16:42:56.279Z,7.67
2022-11-14T16:45:25.085Z,7.59
2022-11-14T16:47:51.574Z,7.65
2022-11-14T16:50:19.122Z,7.60
2022-11-14T16:52:45.604Z,7.70
2022-11-14T16:55:12.522Z,7.69
2022-11-14T16:57:40.182Z,7.74
2022-11-14T17:00:09.453Z,7.63
2022-11-14T17:02:35.924Z,7.60
2022-11-14T17:05:02.393Z,7.56
2022-11-14T17:07:32.655Z,7.54
2022-11-14T17:10:02.907Z,7.63
2022-11-14T17:12:29.326Z,7.73
2022-11-14T17:14:55.790Z,7.65
2022-11-14T17:17:22.174Z,7.79
2022-11-14T17:19:48.832Z,7.85
2022-11-14T17:22:17.318Z,7.83
2022-11-14T17:24:44.305Z,7.85
2022-11-14T17:27:12.792Z,7.83
2022-11-14T17:29:39.365Z,7.81
2022-11-14T17:32:05.736Z,7.68
2022-11-14T17:34:32.506Z,7.63
2022-11-14T17:36:58.878Z,7.63
2022-11-14T17:39:26.099Z,7.62
2022-11-14T17:41:52.513Z,7.54
2022-11-14T17:44:18.865Z,7.52
2022-11-14T17:46:46.827Z,7.44
2022-11-14T17:49:13.210Z,7.38
2022-11-14T17:51:39.563Z,7.30
2022-11-14T17:54:05.990Z,7.27
2022-11-14T17:56:32.320Z,7.18
2022-11-14T17:58:58.827Z,7.22
2022-11-14T18:01:25.352Z,7.21
2022-11-14T18:03:51.806Z,7.11
2022-11-14T18:06:20.563Z,7.09
2022-11-14T18:08:47.726Z,7.02
2022-11-14T18:11:16.922Z,7.00
2022-11-14T18:13:43.657Z,6.98
2022-11-14T18:16:13.578Z,6.98
2022-11-14T18:18:40.912Z,6.98
2022-11-14T18:21:25.725Z,6.99
2022-11-14T18:23:54.243Z,6.94
2022-11-14T18:26:26.895Z,6.90
2022-11-14T18:29:02.018Z,6.87
2022-11-14T18:31:28.811Z,6.81
2022-11-14T18:33:56.474Z,6.73
2022-11-14T18:36:23.662Z,6.62
2022-11-14T18:38:50.400Z,6.51
2022-11-14T18:41:19.495Z,6.50
2022-11-14T18:43:46.012Z,6.42
2022-11-14T18:48:42.432Z,6.49
2022-11-14T18:51:17.434Z,6.57
2022-11-14T18:53:44.284Z,6.54
2022-11-14T18:56:14.342Z,6.60
2022-11-14T18:58:42.784Z,6.59
2022-11-14T19:01:13.734Z,6.70
2022-11-14T19:03:40.646Z,6.65
2022-11-14T19:06:09.187Z,6.72
2022-11-14T19:08:35.774Z,6.66
2022-11-14T19:11:07.464Z,6.78
2022-11-14T19:13:34.465Z,6.80
2022-11-14T19:16:05.309Z,6.82
2022-11-14T19:18:32.355Z,6.84
2022-11-14T19:21:00.787Z,6.88
2022-11-14T19:23:28.335Z,6.89
2022-11-14T19:26:00.603Z,6.94
2022-11-14T19:28:29.462Z,6.85
2022-11-14T19:31:03.425Z,6.96
2022-11-14T19:33:31.084Z,6.94
2022-11-14T19:35:58.506Z,6.99
2022-11-14T19:38:25.131Z,6.97
2022-11-14T19:40:51.515Z,7.09
2022-11-14T19:43:18.426Z,7.07
2022-11-14T19:45:44.882Z,7.17
2022-11-14T19:48:11.571Z,7.21
2022-11-14T19:50:38.199Z,7.28
2022-11-14T19:53:05.056Z,7.25
2022-11-14T19:55:32.116Z,7.28
2022-11-14T19:57:59.192Z,7.34
2022-11-14T20:00:29.232Z,7.38
2022-11-14T20:02:55.651Z,7.36
2022-11-14T20:05:22.267Z,7.47
2022-11-14T20:07:48.705Z,7.51
2022-11-14T20:10:16.332Z,7.55
2022-11-14T20:12:42.785Z,7.55
2022-11-14T20:15:09.877Z,7.56
2022-11-14T20:17:36.286Z,7.64
2022-11-14T20:20:02.889Z,7.65
2022-11-14T20:22:29.282Z,7.69
2022-11-14T20:24:55.835Z,7.72
2022-11-14T20:27:22.236Z,7.75
2022-11-14T20:29:48.734Z,7.82
2022-11-14T20:32:15.984Z,7.82
2022-11-14T20:34:42.673Z,7.87
2022-11-14T20:37:11.649Z,7.85
2022-11-14T20:39:38.663Z,7.85
2022-11-14T20:42:05.168Z,7.95
2022-11-14T20:44:31.645Z,7.98
2022-11-14T20:46:58.246Z,7.96
2022-11-14T20:49:24.681Z,8.10
2022-11-14T20:51:51.311Z,8.14
2022-11-14T20:54:17.691Z,8.14
2022-11-14T20:56:45.316Z,8.16
2022-11-14T20:59:11.736Z,8.22
2022-11-14T21:01:43.419Z,8.24
2022-11-14T21:04:10.573Z,8.22
2022-11-14T21:06:37.142Z,8.28
2022-11-14T21:09:03.711Z,8.30
2022-11-14T21:11:31.200Z,8.37
2022-11-14T21:13:58.513Z,8.44
2022-11-14T21:16:39.433Z,8.46
2022-11-14T21:19:07.511Z,8.53
2022-11-14T21:21:35.735Z,8.59
2022-11-14T21:24:02.208Z,8.65
2022-11-14T21:26:31.632Z,8.70
2022-11-14T21:29:00.851Z,8.78
2022-11-14T21:31:34.865Z,8.86
2022-11-14T21:34:03.974Z,8.84
2022-11-14T21:36:44.233Z,8.89
2022-11-14T21:39:14.684Z,8.92
2022-11-14T21:41:42.629Z,9.00
2022-11-14T21:44:13.078Z,9.06
2022-11-14T21:46:40.340Z,9.25
2022-11-14T21:49:06.773Z,9.27
2022-11-14T21:51:33.340Z,9.31
2022-11-14T21:53:59.874Z,9.31
2022-11-14T21:56:28.976Z,9.32
2022-11-14T21:59:15.884Z,9.38
2022-11-14T22:02:04.293Z,9.29
2022-11-14T22:04:31.895Z,9.37
2022-11-14T22:06:59.861Z,9.31
2022-11-14T22:09:28.047Z,9.37
2022-11-14T22:11:56.193Z,9.41
2022-11-14T22:14:23.016Z,9.45
2022-11-14T22:16:49.657Z,9.42
2022-11-14T22:19:16.198Z,9.42
2022-11-14T22:21:42.790Z,9.48
2022-11-14T22:24:09.177Z,9.52
2022-11-14T22:26:39.690Z,9.47
2022-11-14T22:29:07.192Z,9.50
2022-11-14T22:31:34.145Z,9.67
2022-11-14T22:34:00.630Z,9.66
2022-11-14T22:36:27.975Z,9.62
2022-11-14T22:38:55.584Z,9.66
2022-11-14T22:41:30.481Z,9.67
2022-11-14T22:43:59.189Z,9.70
2022-11-14T22:46:27.060Z,9.64
2022-11-14T22:48:53.547Z,9.70
2022-11-14T22:51:24.170Z,9.72
2022-11-14T22:53:52.620Z,9.75
2022-11-14T22:56:21.301Z,9.64
2022-11-14T22:58:48.537Z,9.60
2022-11-14T23:01:20.443Z,9.70
2022-11-14T23:03:50.792Z,9.56
2022-11-14T23:06:18.846Z,9.48
2022-11-14T23:08:45.615Z,9.38
2022-11-14T23:11:19.197Z,9.48
2022-11-14T23:13:47.892Z,9.50
2022-11-14T23:16:20.314Z,9.54
2022-11-14T23:18:47.649Z,9.54
2022-11-14T23:21:20.003Z,9.63
2022-11-14T23:23:46.768Z,9.74
2022-11-14T23:26:15.835Z,9.75
2022-11-14T23:28:42.860Z,9.74
2022-11-14T23:31:10.518Z,9.75
2022-11-14T23:33:36.983Z,9.81
2022-11-14T23:36:04.153Z,9.75
2022-11-14T23:38:30.980Z,9.89
2022-11-14T23:40:59.472Z,9.85
2022-11-14T23:43:26.631Z,9.84
2022-11-14T23:45:53.353Z,9.89
2022-11-14T23:48:21.064Z,9.91
2022-11-14T23:50:55.650Z,9.94
2022-11-14T23:53:22.503Z,9.99
2022-11-14T23:56:00.175Z,10.08
2022-11-14T23:58:27.971Z,10.10
